Time;durP1;ratioP1;P1;durP2;ratioP2;P2;SDS_P1;SDS_P2;PMS_P1;PMS_P2;Temp;Humidity;BMP_temperature;BMP_pressure;BME280_temperature;BME280_humidity;BME280_pressure;Samples;Min_cycle;Max_cycle;Signal;HPM_P1;HPM_P2
2022/11/18 00:00:35;;;;;;;;;;;;;;;;;;5024141;28;20390;-59
2022/11/18 00:03:01;;;;;;;;;;;;;;;;;;5028113;28;19913;-59
2022/11/18 00:05:26;;;;;;;;;;;;;;;;;;5027767;28;20030;-59
2022/11/18 00:07:51;;;;;;;;;;;;;;;;;;5026367;28;19920;-59
2022/11/18 00:10:16;;;;;;;;;;;;;;;;;;5026681;28;19925;-59
2022/11/18 00:15:25;;;;;;;;;;;;;;;;;;5027312;28;20316;-59
2022/11/18 00:17:51;;;;;;;;;;;;;;;;;;5024223;28;19926;-59
2022/11/18 00:20:16;;;;;;;;;;;;;;;;;;5027086;28;19917;-59
2022/11/18 00:22:41;;;;;;;;;;;;;;;;;;5025698;28;20380;-59
2022/11/18 00:25:06;;;;;;;;;;;;;;;;;;5021995;28;19917;-58
2022/11/18 00:27:31;;;;;;;;;;;;;;;;;;5026314;28;19920;-59
2022/11/18 00:29:56;;;;;;;;;;;;;;;;;;5026795;28;20334;-59
2022/11/18 00:32:22;;;;;;;;;;;;;;;;;;5021709;28;19914;-59
2022/11/18 00:34:47;;;;;;;;;;;;;;;;;;5023220;28;19917;-59
2022/11/18 00:37:12;;;;;;;;;;;;;;;;;;5022165;28;20020;-59
2022/11/18 00:39:37;;;;;;;;;;;;;;;;;;5029581;28;19930;-59
2022/11/18 00:44:46;;;;;;;;;;;;;;;;;;5025102;28;19942;-59
2022/11/18 00:47:12;;;;;;;;;;;;;;;;;;5026922;28;19925;-59
2022/11/18 00:49:37;;;;;;;;;;;;;;;;;;5024960;28;20053;-59
2022/11/18 00:52:02;;;;;;;;;;;;;;;;;;5027577;28;19917;-59
2022/11/18 00:54:27;;;;;;;;;;;;;;;;;;5026203;28;19964;-59
2022/11/18 00:56:52;;;;;;;;;;;;;;;;;;5028079;28;20290;-59
2022/11/18 00:59:17;;;;;;;;;;;;;;;;;;5027115;28;19917;-60
2022/11/18 01:01:43;;;;;;;;;;;;;;;;;;5021789;28;19927;-59
2022/11/18 01:04:08;;;;;;;;;;;;;;;;;;5022613;28;20916;-59
2022/11/18 01:06:33;;;;;;;;;;;;;;;;;;5024989;28;19963;-60
2022/11/18 01:08:59;;;;;;;;;;;;;;;;;;5025104;28;19921;-59
2022/11/18 01:14:08;;;;;;;;;;;;;;;;;;5026415;28;20393;-59
2022/11/18 01:16:33;;;;;;;;;;;;;;;;;;5027206;28;19925;-59
2022/11/18 01:18:58;;;;;;;;;;;;;;;;;;5024128;28;19955;-59
2022/11/18 01:21:23;;;;;;;;;;;;;;;;;;5025390;28;19941;-59
2022/11/18 01:23:48;;;;;;;;;;;;;;;;;;5026443;28;20377;-59
2022/11/18 01:26:14;;;;;;;;;;;;;;;;;;5024525;28;19992;-60
2022/11/18 01:28:39;;;;;;;;;;;;;;;;;;5024692;28;19921;-59
2022/11/18 01:31:04;;;;;;;;;;;;;;;;;;5027599;28;20374;-59
2022/11/18 01:33:29;;;;;;;;;;;;;;;;;;5024684;28;19921;-57
2022/11/18 01:35:54;;;;;;;;;;;;;;;;;;5026600;28;19917;-59
2022/11/18 01:38:20;;;;;;;;;;;;;;;;;;5025760;28;20318;-60
2022/11/18 01:40:45;;;;;;;;;;;;;;;;;;5024603;28;19913;-59
2022/11/18 01:43:10;;;;;;;;;;;;;;;;;;5027888;28;19917;-60
2022/11/18 01:45:35;;;;;;;;;;;;;;;;;;5029793;28;20392;-59
2022/11/18 01:48:00;;;;;;;;;;;;;;;;;;5027905;28;19943;-59
2022/11/18 01:50:25;;;;;;;;;;;;;;;;;;5031123;28;19924;-59
2022/11/18 01:52:51;;;;;;;;;;;;;;;;;;5028466;28;19913;-60
2022/11/18 01:55:16;;;;;;;;;;;;;;;;;;5028443;28;20321;-60
2022/11/18 01:57:41;;;;;;;;;;;;;;;;;;5028627;28;19932;-60
2022/11/18 02:00:06;;;;;;;;;;;;;;;;;;5028615;28;19921;-57
2022/11/18 02:02:32;;;;;;;;;;;;;;;;;;5027892;28;19932;-58
2022/11/18 02:04:57;;;;;;;;;;;;;;;;;;5029476;28;20530;-58
2022/11/18 02:07:22;;;;;;;;;;;;;;;;;;5026906;28;20254;-60
2022/11/18 02:09:48;;;;;;;;;;;;;;;;;;5028642;28;19917;-59
2022/11/18 02:12:13;;;;;;;;;;;;;;;;;;5027679;28;19917;-59
2022/11/18 02:14:38;;;;;;;;;;;;;;;;;;5032246;28;19921;-59
2022/11/18 02:17:04;;;;;;;;;;;;;;;;;;5029622;28;19964;-59
2022/11/18 02:19:29;;;;;;;;;;;;;;;;;;5029017;28;20409;-59
2022/11/18 02:21:54;;;;;;;;;;;;;;;;;;5026744;28;19928;-59
2022/11/18 02:24:19;;;;;;;;;;;;;;;;;;5032402;28;19956;-59
2022/11/18 02:26:44;;;;;;;;;;;;;;;;;;5028745;28;19935;-59
2022/11/18 02:29:10;;;;;;;;;;;;;;;;;;5032591;28;19921;-59
2022/11/18 02:31:35;;;;;;;;;;;;;;;;;;5027529;28;20664;-59
2022/11/18 02:34:00;;;;;;;;;;;;;;;;;;5026541;28;19967;-59
2022/11/18 02:36:25;;;;;;;;;;;;;;;;;;5030209;28;19924;-59
2022/11/18 02:38:50;;;;;;;;;;;;;;;;;;5027432;28;20004;-59
2022/11/18 02:41:16;;;;;;;;;;;;;;;;;;5028365;28;19921;-58
2022/11/18 02:43:41;;;;;;;;;;;;;;;;;;5031400;28;20381;-58
2022/11/18 02:46:06;;;;;;;;;;;;;;;;;;5026539;28;19968;-58
2022/11/18 02:48:31;;;;;;;;;;;;;;;;;;5026831;28;19948;-58
2022/11/18 02:50:56;;;;;;;;;;;;;;;;;;5029337;28;20011;-58
2022/11/18 02:53:22;;;;;;;;;;;;;;;;;;5027089;28;19924;-58
2022/11/18 02:55:47;;;;;;;;;;;;;;;;;;5030958;28;19922;-58
2022/11/18 02:58:12;;;;;;;;;;;;;;;;;;5027521;28;20008;-59
2022/11/18 03:00:37;;;;;;;;;;;;;;;;;;5029126;28;19948;-59
2022/11/18 03:03:02;;;;;;;;;;;;;;;;;;5029036;28;19917;-58
2022/11/18 03:05:28;;;;;;;;;;;;;;;;;;5027649;28;19923;-58
2022/11/18 03:07:53;;;;;;;;;;;;;;;;;;5028064;28;19920;-58
2022/11/18 03:10:18;;;;;;;;;;;;;;;;;;5029373;28;19975;-59
2022/11/18 03:12:43;;;;;;;;;;;;;;;;;;5029120;28;19924;-58
2022/11/18 03:15:08;;;;;;;;;;;;;;;;;;5027439;28;20356;-57
2022/11/18 03:17:33;;;;;;;;;;;;;;;;;;5027834;28;19983;-59
2022/11/18 03:19:59;;;;;;;;;;;;;;;;;;5027833;28;19921;-58
2022/11/18 03:22:24;;;;;;;;;;;;;;;;;;5026870;28;19925;-58
2022/11/18 03:24:49;;;;;;;;;;;;;;;;;;5022570;28;19936;-59
2022/11/18 03:27:14;;;;;;;;;;;;;;;;;;5025357;28;19968;-58
2022/11/18 03:29:39;;;;;;;;;;;;;;;;;;5027312;28;20016;-58
2022/11/18 03:32:05;;;;;;;;;;;;;;;;;;5027539;28;20412;-58
2022/11/18 03:34:30;;;;;;;;;;;;;;;;;;5026084;28;19967;-58
2022/11/18 03:36:55;;;;;;;;;;;;;;;;;;5027166;28;19976;-58
2022/11/18 03:39:20;;;;;;;;;;;;;;;;;;5025215;28;20044;-58
2022/11/18 03:41:45;;;;;;;;;;;;;;;;;;5027450;28;19917;-58
2022/11/18 03:44:10;;;;;;;;;;;;;;;;;;5026385;28;19927;-58
2022/11/18 03:46:36;;;;;;;;;;;;;;;;;;5026088;28;20715;-57
2022/11/18 03:49:01;;;;;;;;;;;;;;;;;;5029320;28;19960;-57
2022/11/18 03:51:26;;;;;;;;;;;;;;;;;;5026310;28;19924;-57
2022/11/18 03:53:51;;;;;;;;;;;;;;;;;;5027388;28;20581;-56
2022/11/18 03:56:17;;;;;;;;;;;;;;;;;;5027434;28;20347;-57
2022/11/18 03:58:42;;;;;;;;;;;;;;;;;;5027399;28;19925;-56
2022/11/18 04:01:07;;;;;;;;;;;;;;;;;;5026112;28;19921;-57
2022/11/18 04:03:32;;;;;;;;;;;;;;;;;;5026588;28;20385;-56
2022/11/18 04:05:57;;;;;;;;;;;;;;;;;;5026444;28;19923;-57
2022/11/18 04:08:23;;;;;;;;;;;;;;;;;;5025704;28;19917;-55
2022/11/18 04:10:48;;;;;;;;;;;;;;;;;;5025603;28;19917;-51
2022/11/18 04:13:13;;;;;;;;;;;;;;;;;;5029036;28;20325;-56
2022/11/18 04:15:38;;;;;;;;;;;;;;;;;;5026523;28;19913;-52
2022/11/18 04:18:03;;;;;;;;;;;;;;;;;;5025880;28;20313;-55
2022/11/18 04:20:30;;;;;;;;;;;;;;;;;;5025888;28;19917;-55
2022/11/18 04:22:55;;;;;;;;;;;;;;;;;;5027127;28;21369;-55
2022/11/18 04:25:20;;;;;;;;;;;;;;;;;;5027031;28;20508;-54
2022/11/18 04:27:46;;;;;;;;;;;;;;;;;;5026384;28;19917;-53
2022/11/18 04:30:11;;;;;;;;;;;;;;;;;;5025873;28;20415;-56
2022/11/18 04:32:36;;;;;;;;;;;;;;;;;;5025354;28;19917;-54
2022/11/18 04:35:01;;;;;;;;;;;;;;;;;;5025779;28;19913;-53
2022/11/18 04:37:26;;;;;;;;;;;;;;;;;;5024517;28;19925;-55
2022/11/18 04:39:52;;;;;;;;;;;;;;;;;;5030060;28;20063;-54
2022/11/18 04:42:17;;;;;;;;;;;;;;;;;;5025311;28;19924;-56
2022/11/18 04:44:42;;;;;;;;;;;;;;;;;;5025797;28;19924;-56
2022/11/18 04:47:07;;;;;;;;;;;;;;;;;;5023180;28;19975;-57
2022/11/18 04:49:32;;;;;;;;;;;;;;;;;;5025056;28;19918;-55
2022/11/18 04:51:57;;;;;;;;;;;;;;;;;;5028917;28;19953;-51
2022/11/18 04:54:23;;;;;;;;;;;;;;;;;;5040467;28;19917;-56
2022/11/18 04:56:48;;;;;;;;;;;;;;;;;;5021512;28;20939;-51
2022/11/18 04:59:13;;;;;;;;;;;;;;;;;;5025552;28;19920;-54
2022/11/18 05:01:38;;;;;;;;;;;;;;;;;;5033390;28;20003;-53
2022/11/18 05:04:03;;;;;;;;;;;;;;;;;;5022108;28;20226;-54
2022/11/18 05:06:29;;;;;;;;;;;;;;;;;;5026045;28;19925;-54
2022/11/18 05:08:54;;;;;;;;;;;;;;;;;;5024520;28;19917;-55
2022/11/18 05:14:03;;;;;;;;;;;;;;;;;;5027161;28;19921;-49
2022/11/18 05:16:28;;;;;;;;;;;;;;;;;;5027235;28;19917;-55
2022/11/18 05:18:53;;;;;;;;;;;;;;;;;;5026676;28;20333;-51
2022/11/18 05:21:18;;;;;;;;;;;;;;;;;;5030066;28;19913;-55
2022/11/18 05:23:44;;;;;;;;;;;;;;;;;;5026527;28;19960;-51
2022/11/18 05:26:09;;;;;;;;;;;;;;;;;;5025574;28;20065;-52
2022/11/18 05:28:34;;;;;;;;;;;;;;;;;;5027285;28;20290;-57
2022/11/18 05:30:59;;;;;;;;;;;;;;;;;;5027793;28;19928;-55
2022/11/18 05:33:24;;;;;;;;;;;;;;;;;;5033557;28;19967;-52
2022/11/18 05:35:50;;;;;;;;;;;;;;;;;;5030529;28;20294;-52
2022/11/18 05:38:15;;;;;;;;;;;;;;;;;;5027017;28;19921;-52
2022/11/18 05:40:40;;;;;;;;;;;;;;;;;;5031562;28;19928;-52
2022/11/18 05:43:11;;;;;;;;;;;;;;;;;;5028350;28;20016;-52
2022/11/18 05:45:36;;;;;;;;;;;;;;;;;;5030942;28;19963;-55
2022/11/18 05:48:03;;;;;;;;;;;;;;;;;;5024890;28;19961;-53
2022/11/18 05:50:28;;;;;;;;;;;;;;;;;;5025125;28;19917;-52
2022/11/18 05:52:53;;;;;;;;;;;;;;;;;;5023867;28;19917;-52
2022/11/18 05:55:18;;;;;;;;;;;;;;;;;;5027992;28;19995;-53
2022/11/18 05:57:43;;;;;;;;;;;;;;;;;;5026803;28;20619;-52
2022/11/18 06:00:09;;;;;;;;;;;;;;;;;;5023136;28;20310;-54
2022/11/18 06:02:37;;;;;;;;;;;;;;;;;;5038792;28;20565;-54
2022/11/18 06:05:02;;;;;;;;;;;;;;;;;;5026455;28;19921;-54
2022/11/18 06:07:28;;;;;;;;;;;;;;;;;;5026804;28;19964;-56
2022/11/18 06:09:53;;;;;;;;;;;;;;;;;;5029395;28;19921;-57
2022/11/18 06:12:18;;;;;;;;;;;;;;;;;;5028718;28;20353;-52
2022/11/18 06:14:43;;;;;;;;;;;;;;;;;;5028443;28;19925;-55
2022/11/18 06:17:08;;;;;;;;;;;;;;;;;;5033563;28;19965;-54
2022/11/18 06:19:34;;;;;;;;;;;;;;;;;;5041088;28;19917;-54
2022/11/18 06:21:59;;;;;;;;;;;;;;;;;;5031201;28;20412;-56
2022/11/18 06:24:24;;;;;;;;;;;;;;;;;;5030251;28;19917;-53
2022/11/18 06:26:49;;;;;;;;;;;;;;;;;;5016525;28;19974;-54
2022/11/18 06:29:14;;;;;;;;;;;;;;;;;;5018787;28;19917;-52
2022/11/18 06:31:40;;;;;;;;;;;;;;;;;;5028791;28;19996;-53
2022/11/18 06:34:05;;;;;;;;;;;;;;;;;;5024435;28;20530;-54
2022/11/18 06:36:30;;;;;;;;;;;;;;;;;;5025105;28;19964;-56
2022/11/18 06:38:55;;;;;;;;;;;;;;;;;;5025365;28;19917;-56
2022/11/18 06:41:20;;;;;;;;;;;;;;;;;;5031782;28;20343;-55
2022/11/18 06:43:46;;;;;;;;;;;;;;;;;;5025589;28;20258;-54
2022/11/18 06:48:55;;;;;;;;;;;;;;;;;;5028307;28;20286;-53
2022/11/18 06:51:20;;;;;;;;;;;;;;;;;;5026785;28;19917;-53
2022/11/18 06:53:45;;;;;;;;;;;;;;;;;;5026895;28;19985;-55
2022/11/18 06:56:11;;;;;;;;;;;;;;;;;;5029820;28;20015;-54
2022/11/18 06:58:36;;;;;;;;;;;;;;;;;;5030204;28;20039;-56
2022/11/18 07:01:01;;;;;;;;;;;;;;;;;;5031245;28;19917;-54
2022/11/18 07:03:26;;;;;;;;;;;;;;;;;;5026994;28;19978;-54
2022/11/18 07:05:52;;;;;;;;;;;;;;;;;;5028771;28;20071;-56
2022/11/18 07:08:17;;;;;;;;;;;;;;;;;;5026844;28;20030;-54
2022/11/18 07:10:42;;;;;;;;;;;;;;;;;;5027966;28;20294;-57
2022/11/18 07:13:07;;;;;;;;;;;;;;;;;;5028319;28;19928;-54
2022/11/18 07:15:32;;;;;;;;;;;;;;;;;;5029399;28;19946;-57
2022/11/18 07:17:58;;;;;;;;;;;;;;;;;;5028976;28;19925;-53
2022/11/18 07:20:23;;;;;;;;;;;;;;;;;;5028473;28;19917;-55
2022/11/18 07:22:48;;;;;;;;;;;;;;;;;;5030324;28;19916;-56
2022/11/18 07:25:13;;;;;;;;;;;;;;;;;;5030551;28;19967;-53
2022/11/18 07:27:38;;;;;;;;;;;;;;;;;;5028605;28;19917;-56
2022/11/18 07:30:03;;;;;;;;;;;;;;;;;;5030660;28;19917;-52
2022/11/18 07:32:29;;;;;;;;;;;;;;;;;;5027796;28;19920;-54
2022/11/18 07:34:54;;;;;;;;;;;;;;;;;;5027702;28;19944;-52
2022/11/18 07:37:19;;;;;;;;;;;;;;;;;;5028992;28;20892;-56
2022/11/18 07:39:44;;;;;;;;;;;;;;;;;;5026961;28;20263;-48
2022/11/18 07:42:09;;;;;;;;;;;;;;;;;;5023642;28;19917;-53
2022/11/18 07:44:35;;;;;;;;;;;;;;;;;;5026935;28;19917;-54
2022/11/18 07:47:00;;;;;;;;;;;;;;;;;;5025334;28;19921;-55
2022/11/18 07:49:25;;;;;;;;;;;;;;;;;;5028361;28;20289;-53
2022/11/18 07:51:50;;;;;;;;;;;;;;;;;;5030442;28;19928;-52
2022/11/18 07:54:16;;;;;;;;;;;;;;;;;;5030108;28;19913;-55
2022/11/18 07:56:41;;;;;;;;;;;;;;;;;;5027053;28;20488;-52
2022/11/18 07:59:06;;;;;;;;;;;;;;;;;;5027719;28;19917;-52
2022/11/18 08:01:32;;;;;;;;;;;;;;;;;;5029338;28;19913;-48
2022/11/18 08:03:57;;;;;;;;;;;;;;;;;;5030371;28;19920;-52
2022/11/18 08:06:22;;;;;;;;;;;;;;;;;;5028071;28;19924;-52
2022/11/18 08:08:47;;;;;;;;;;;;;;;;;;5030937;28;19913;-54
2022/11/18 08:11:12;;;;;;;;;;;;;;;;;;5025606;28;20035;-52
2022/11/18 08:13:38;;;;;;;;;;;;;;;;;;5027769;28;19978;-53
2022/11/18 08:16:03;;;;;;;;;;;;;;;;;;5027898;28;19929;-53
2022/11/18 08:18:30;;;;;;;;;;;;;;;;;;5025393;28;20272;-53
2022/11/18 08:20:55;;;;;;;;;;;;;;;;;;5027846;28;20003;-53
2022/11/18 08:23:20;;;;;;;;;;;;;;;;;;5032360;28;19921;-53
2022/11/18 08:25:45;;;;;;;;;;;;;;;;;;5027029;28;20696;-56
2022/11/18 08:28:10;;;;;;;;;;;;;;;;;;5028240;28;19921;-54
2022/11/18 08:30:36;;;;;;;;;;;;;;;;;;5028563;28;19917;-56
2022/11/18 08:33:01;;;;;;;;;;;;;;;;;;5027446;28;19917;-53
2022/11/18 08:35:26;;;;;;;;;;;;;;;;;;5027679;28;19952;-55
2022/11/18 08:37:51;;;;;;;;;;;;;;;;;;5028186;28;20020;-52
2022/11/18 08:40:16;;;;;;;;;;;;;;;;;;5028975;28;19920;-54
2022/11/18 08:42:42;;;;;;;;;;;;;;;;;;5027786;28;19921;-52
2022/11/18 08:45:07;;;;;;;;;;;;;;;;;;5026987;28;20095;-54
2022/11/18 08:47:32;;;;;;;;;;;;;;;;;;5028309;28;19924;-55
2022/11/18 08:49:57;;;;;;;;;;;;;;;;;;5027558;28;19917;-54
2022/11/18 08:52:22;;;;;;;;;;;;;;;;;;5024926;28;19924;-56
2022/11/18 08:54:48;;;;;;;;;;;;;;;;;;5026331;28;20047;-51
2022/11/18 08:57:13;;;;;;;;;;;;;;;;;;5026254;28;19921;-51
2022/11/18 08:59:38;;;;;;;;;;;;;;;;;;5027189;28;19917;-53
2022/11/18 09:02:03;;;;;;;;;;;;;;;;;;5026000;28;19917;-53
2022/11/18 09:04:28;;;;;;;;;;;;;;;;;;5027959;28;19924;-52
2022/11/18 09:06:54;;;;;;;;;;;;;;;;;;5027592;28;20003;-54
2022/11/18 09:09:19;;;;;;;;;;;;;;;;;;5025385;28;20424;-53
2022/11/18 09:11:44;;;;;;;;;;;;;;;;;;5027339;28;19924;-52
2022/11/18 09:14:09;;;;;;;;;;;;;;;;;;5029419;28;19921;-54
2022/11/18 09:16:35;;;;;;;;;;;;;;;;;;5029568;28;19917;-55
2022/11/18 09:19:00;;;;;;;;;;;;;;;;;;5027466;28;19970;-52
2022/11/18 09:21:25;;;;;;;;;;;;;;;;;;5026602;28;19920;-51
2022/11/18 09:23:50;;;;;;;;;;;;;;;;;;5026329;28;19932;-56
2022/11/18 09:26:16;;;;;;;;;;;;;;;;;;5026563;28;20281;-53
2022/11/18 09:28:41;;;;;;;;;;;;;;;;;;5030872;28;19921;-54
2022/11/18 09:31:06;;;;;;;;;;;;;;;;;;5025079;28;19963;-51
2022/11/18 09:33:32;;;;;;;;;;;;;;;;;;5024523;28;19917;-50
2022/11/18 09:35:57;;;;;;;;;;;;;;;;;;5025804;28;20484;-52
2022/11/18 09:38:22;;;;;;;;;;;;;;;;;;5019742;28;19925;-54
2022/11/18 09:40:47;;;;;;;;;;;;;;;;;;5025368;28;19917;-52
2022/11/18 09:43:12;;;;;;;;;;;;;;;;;;5026915;28;19964;-49
2022/11/18 09:45:38;;;;;;;;;;;;;;;;;;5025407;28;19921;-52
2022/11/18 09:48:03;;;;;;;;;;;;;;;;;;5024245;28;19963;-56
2022/11/18 09:50:28;;;;;;;;;;;;;;;;;;5023830;28;19925;-53
2022/11/18 09:52:53;;;;;;;;;;;;;;;;;;5025641;28;19917;-51
2022/11/18 09:55:18;;;;;;;;;;;;;;;;;;5024653;28;20039;-51
2022/11/18 09:57:45;;;;;;;;;;;;;;;;;;5025344;28;19925;-54
2022/11/18 10:00:10;;;;;;;;;;;;;;;;;;5023797;28;19924;-52
2022/11/18 10:02:37;;;;;;;;;;;;;;;;;;5025130;28;19987;-52
2022/11/18 10:05:02;;;;;;;;;;;;;;;;;;5028971;28;19917;-52
2022/11/18 10:07:27;;;;;;;;;;;;;;;;;;5031299;28;19917;-53
2022/11/18 10:09:52;;;;;;;;;;;;;;;;;;5028232;28;19917;-52
2022/11/18 10:12:18;;;;;;;;;;;;;;;;;;5028059;28;19913;-51
2022/11/18 10:14:43;;;;;;;;;;;;;;;;;;5029434;28;19990;-54
2022/11/18 10:17:08;;;;;;;;;;;;;;;;;;5027930;28;19921;-48
2022/11/18 10:19:33;;;;;;;;;;;;;;;;;;5028358;28;19917;-53
2022/11/18 10:21:59;;;;;;;;;;;;;;;;;;5030873;28;19924;-54
2022/11/18 10:24:24;;;;;;;;;;;;;;;;;;5030146;28;19921;-49
2022/11/18 10:26:49;;;;;;;;;;;;;;;;;;5028925;28;19990;-50
2022/11/18 10:29:14;;;;;;;;;;;;;;;;;;5030100;28;20007;-54
2022/11/18 10:31:39;;;;;;;;;;;;;;;;;;5028169;28;19921;-51
2022/11/18 10:34:05;;;;;;;;;;;;;;;;;;5028461;28;19967;-52
2022/11/18 10:36:31;;;;;;;;;;;;;;;;;;5031134;28;19920;-52
2022/11/18 10:38:56;;;;;;;;;;;;;;;;;;5027610;28;20308;-55
2022/11/18 10:41:21;;;;;;;;;;;;;;;;;;5028710;28;19921;-53
2022/11/18 10:43:47;;;;;;;;;;;;;;;;;;5024952;28;19917;-55
2022/11/18 10:46:12;;;;;;;;;;;;;;;;;;5027589;28;19921;-51
2022/11/18 10:48:38;;;;;;;;;;;;;;;;;;5027881;28;19917;-51
2022/11/18 10:51:03;;;;;;;;;;;;;;;;;;5028008;28;19917;-50
2022/11/18 10:53:28;;;;;;;;;;;;;;;;;;5024259;28;19943;-52
2022/11/18 10:55:53;;;;;;;;;;;;;;;;;;5029027;28;20568;-53
2022/11/18 10:58:18;;;;;;;;;;;;;;;;;;5032363;28;19936;-54
2022/11/18 11:00:44;;;;;;;;;;;;;;;;;;5027749;28;19913;-58
2022/11/18 11:03:09;;;;;;;;;;;;;;;;;;5038112;28;19949;-53
2022/11/18 11:05:34;;;;;;;;;;;;;;;;;;5024755;28;20635;-52
2022/11/18 11:07:59;;;;;;;;;;;;;;;;;;5024368;28;20772;-55
2022/11/18 11:10:24;;;;;;;;;;;;;;;;;;5028985;28;19916;-54
2022/11/18 11:12:50;;;;;;;;;;;;;;;;;;5024088;28;20365;-56
2022/11/18 11:15:15;;;;;;;;;;;;;;;;;;5021941;28;19917;-54
2022/11/18 11:17:40;;;;;;;;;;;;;;;;;;5026859;28;19932;-52
2022/11/18 11:20:06;;;;;;;;;;;;;;;;;;5027899;28;19944;-50
2022/11/18 11:22:31;;;;;;;;;;;;;;;;;;5028950;28;19917;-55
2022/11/18 11:24:56;;;;;;;;;;;;;;;;;;5026374;28;20003;-49
2022/11/18 11:27:21;;;;;;;;;;;;;;;;;;5025470;28;20767;-52
2022/11/18 11:29:46;;;;;;;;;;;;;;;;;;5027221;28;19917;-52
2022/11/18 11:32:12;;;;;;;;;;;;;;;;;;5025594;28;19917;-52
2022/11/18 11:34:37;;;;;;;;;;;;;;;;;;5024822;28;19917;-54
2022/11/18 11:37:02;;;;;;;;;;;;;;;;;;5025981;28;19925;-53
2022/11/18 11:39:27;;;;;;;;;;;;;;;;;;5027922;28;19917;-54
2022/11/18 11:41:52;;;;;;;;;;;;;;;;;;5024538;28;19917;-51
2022/11/18 11:44:18;;;;;;;;;;;;;;;;;;5027454;28;20022;-52
2022/11/18 11:46:43;;;;;;;;;;;;;;;;;;5024987;28;19913;-50
2022/11/18 11:49:08;;;;;;;;;;;;;;;;;;5026927;28;19917;-52
2022/11/18 11:51:33;;;;;;;;;;;;;;;;;;5026570;28;20287;-55
2022/11/18 11:53:58;;;;;;;;;;;;;;;;;;5023624;28;19921;-55
2022/11/18 11:56:23;;;;;;;;;;;;;;;;;;5025945;28;19940;-52
2022/11/18 11:58:49;;;;;;;;;;;;;;;;;;5026773;28;19979;-52
2022/11/18 12:01:14;;;;;;;;;;;;;;;;;;5026807;28;20396;-52
2022/11/18 12:03:39;;;;;;;;;;;;;;;;;;5026471;28;19971;-52
2022/11/18 12:06:04;;;;;;;;;;;;;;;;;;5028425;28;19957;-55
2022/11/18 12:08:30;;;;;;;;;;;;;;;;;;5025115;28;19921;-54
2022/11/18 12:10:55;;;;;;;;;;;;;;;;;;5033178;28;19917;-51
2022/11/18 12:13:20;;;;;;;;;;;;;;;;;;5025793;28;19921;-52
2022/11/18 12:15:45;;;;;;;;;;;;;;;;;;5008280;28;20381;-52
2022/11/18 12:18:11;;;;;;;;;;;;;;;;;;5028091;28;19929;-52
2022/11/18 12:20:36;;;;;;;;;;;;;;;;;;5026717;28;19913;-53
2022/11/18 12:23:01;;;;;;;;;;;;;;;;;;5024614;28;20001;-53
2022/11/18 12:25:26;;;;;;;;;;;;;;;;;;5022912;28;19943;-50
2022/11/18 12:27:52;;;;;;;;;;;;;;;;;;5028745;28;20301;-56
2022/11/18 12:30:17;;;;;;;;;;;;;;;;;;5027940;28;19996;-54
2022/11/18 12:32:44;;;;;;;;;;;;;;;;;;5027710;28;19986;-54
2022/11/18 12:35:09;;;;;;;;;;;;;;;;;;5060373;28;20425;-52
2022/11/18 12:37:34;;;;;;;;;;;;;;;;;;5029193;28;19925;-55
2022/11/18 12:40:00;;;;;;;;;;;;;;;;;;5024398;28;19917;-54
2022/11/18 12:45:09;;;;;;;;;;;;;;;;;;5025781;28;19917;-51
2022/11/18 12:47:34;;;;;;;;;;;;;;;;;;5023935;28;19921;-50
2022/11/18 12:49:59;;;;;;;;;;;;;;;;;;5029369;28;20027;-56
2022/11/18 12:52:24;;;;;;;;;;;;;;;;;;5023233;28;19918;-52
2022/11/18 12:54:49;;;;;;;;;;;;;;;;;;5030549;28;20840;-53
2022/11/18 12:57:14;;;;;;;;;;;;;;;;;;5025021;28;19968;-53
2022/11/18 12:59:40;;;;;;;;;;;;;;;;;;5026552;28;19921;-58
2022/11/18 13:02:05;;;;;;;;;;;;;;;;;;5042770;28;19924;-54
2022/11/18 13:04:30;;;;;;;;;;;;;;;;;;5024411;28;20263;-55
2022/11/18 13:06:58;;;;;;;;;;;;;;;;;;5025528;28;19932;-55
2022/11/18 13:09:24;;;;;;;;;;;;;;;;;;5029287;28;19917;-56
2022/11/18 13:11:49;;;;;;;;;;;;;;;;;;5024875;28;19920;-55
2022/11/18 13:19:42;;;;;;;;;;;;;;;;;;5025322;28;19944;-51
2022/11/18 13:24:51;;;;;;;;;;;;;;;;;;5027590;28;19963;-54
2022/11/18 13:27:16;;;;;;;;;;;;;;;;;;5027177;28;19917;-55
2022/11/18 13:29:42;;;;;;;;;;;;;;;;;;5026680;28;20420;-57
2022/11/18 13:32:07;;;;;;;;;;;;;;;;;;5028915;28;19924;-54
2022/11/18 13:34:32;;;;;;;;;;;;;;;;;;5030193;28;19917;-53
2022/11/18 13:36:57;;;;;;;;;;;;;;;;;;5062076;28;19920;-56
2022/11/18 13:39:22;;;;;;;;;;;;;;;;;;5029624;28;19924;-55
2022/11/18 13:41:47;;;;;;;;;;;;;;;;;;5030264;28;19917;-54
2022/11/18 13:44:13;;;;;;;;;;;;;;;;;;5029849;28;20318;-58
2022/11/18 13:46:38;;;;;;;;;;;;;;;;;;5029083;28;19924;-54
2022/11/18 13:49:03;;;;;;;;;;;;;;;;;;5029154;28;20296;-54
2022/11/18 13:51:28;;;;;;;;;;;;;;;;;;5030861;28;19963;-55
2022/11/18 13:53:53;;;;;;;;;;;;;;;;;;5027765;28;19917;-55
2022/11/18 13:56:19;;;;;;;;;;;;;;;;;;5029866;28;19917;-55
2022/11/18 13:58:44;;;;;;;;;;;;;;;;;;5027499;28;19961;-54
2022/11/18 14:01:09;;;;;;;;;;;;;;;;;;5028466;28;19917;-53
2022/11/18 14:03:35;;;;;;;;;;;;;;;;;;5029566;28;19917;-55
2022/11/18 14:06:01;;;;;;;;;;;;;;;;;;5028460;28;20297;-54
2022/11/18 14:08:26;;;;;;;;;;;;;;;;;;5031868;28;19955;-55
2022/11/18 14:10:51;;;;;;;;;;;;;;;;;;5034991;28;19956;-53
2022/11/18 14:13:16;;;;;;;;;;;;;;;;;;5028655;28;19921;-55
2022/11/18 14:15:42;;;;;;;;;;;;;;;;;;5028567;28;19924;-53
2022/11/18 14:18:07;;;;;;;;;;;;;;;;;;5028766;28;19995;-51
2022/11/18 14:20:32;;;;;;;;;;;;;;;;;;5027557;28;20375;-54
2022/11/18 14:22:57;;;;;;;;;;;;;;;;;;5028943;28;19917;-55
2022/11/18 14:25:23;;;;;;;;;;;;;;;;;;5027582;28;20282;-52
2022/11/18 14:27:48;;;;;;;;;;;;;;;;;;5030528;28;19917;-54
2022/11/18 14:30:13;;;;;;;;;;;;;;;;;;5029051;28;19939;-55
2022/11/18 14:32:38;;;;;;;;;;;;;;;;;;5027025;28;19924;-55
2022/11/18 14:35:03;;;;;;;;;;;;;;;;;;5025836;28;19917;-53
2022/11/18 14:37:29;;;;;;;;;;;;;;;;;;5030468;28;19983;-52
2022/11/18 14:39:54;;;;;;;;;;;;;;;;;;5027590;28;20051;-55
2022/11/18 14:42:19;;;;;;;;;;;;;;;;;;5025243;28;20007;-55
2022/11/18 14:44:44;;;;;;;;;;;;;;;;;;5027488;28;19947;-55
2022/11/18 14:47:10;;;;;;;;;;;;;;;;;;5028372;28;19925;-53
2022/11/18 14:49:35;;;;;;;;;;;;;;;;;;5026529;28;20055;-55
2022/11/18 14:52:01;;;;;;;;;;;;;;;;;;5030183;28;19917;-51
2022/11/18 14:54:26;;;;;;;;;;;;;;;;;;5026144;28;20012;-52
2022/11/18 14:56:51;;;;;;;;;;;;;;;;;;5019021;28;19975;-53
2022/11/18 14:59:17;;;;;;;;;;;;;;;;;;5026345;28;19921;-54
2022/11/18 15:01:42;;;;;;;;;;;;;;;;;;5027776;28;19921;-53
2022/11/18 15:04:07;;;;;;;;;;;;;;;;;;5026518;28;20496;-55
2022/11/18 15:06:32;;;;;;;;;;;;;;;;;;5027086;28;20373;-54
2022/11/18 15:08:57;;;;;;;;;;;;;;;;;;5026003;28;19987;-56
2022/11/18 15:11:23;;;;;;;;;;;;;;;;;;5027687;28;19924;-54
2022/11/18 15:13:48;;;;;;;;;;;;;;;;;;5027434;28;19943;-53
2022/11/18 15:16:14;;;;;;;;;;;;;;;;;;5028726;28;19951;-56
2022/11/18 15:18:39;;;;;;;;;;;;;;;;;;5029619;28;20007;-57
2022/11/18 15:21:04;;;;;;;;;;;;;;;;;;5028322;28;20004;-52
2022/11/18 15:23:29;;;;;;;;;;;;;;;;;;5028297;28;19942;-54
2022/11/18 15:25:55;;;;;;;;;;;;;;;;;;5027710;28;20779;-55
2022/11/18 15:28:20;;;;;;;;;;;;;;;;;;5028761;28;19964;-57
2022/11/18 15:30:45;;;;;;;;;;;;;;;;;;5028195;28;19917;-57
2022/11/18 15:33:10;;;;;;;;;;;;;;;;;;5030576;28;20603;-56
2022/11/18 15:35:35;;;;;;;;;;;;;;;;;;5027352;28;19913;-55
2022/11/18 15:38:02;;;;;;;;;;;;;;;;;;5031526;28;19925;-52
2022/11/18 15:40:27;;;;;;;;;;;;;;;;;;5028383;28;19917;-52
2022/11/18 15:42:52;;;;;;;;;;;;;;;;;;5027863;28;19921;-56
2022/11/18 15:45:17;;;;;;;;;;;;;;;;;;5026724;28;19928;-54
2022/11/18 15:47:42;;;;;;;;;;;;;;;;;;5027693;28;19950;-55
2022/11/18 15:50:07;;;;;;;;;;;;;;;;;;5026742;28;20728;-55
2022/11/18 15:52:33;;;;;;;;;;;;;;;;;;5026754;28;19917;-55
2022/11/18 15:54:58;;;;;;;;;;;;;;;;;;5029546;28;19967;-56
2022/11/18 15:57:23;;;;;;;;;;;;;;;;;;5027138;28;19924;-54
2022/11/18 15:59:48;;;;;;;;;;;;;;;;;;5027462;28;20358;-55
2022/11/18 16:02:14;;;;;;;;;;;;;;;;;;5028900;28;19917;-56
2022/11/18 16:04:39;;;;;;;;;;;;;;;;;;5029470;28;19917;-56
2022/11/18 16:07:04;;;;;;;;;;;;;;;;;;5026934;28;19952;-57
2022/11/18 16:12:45;;;;;;;;;;;;;;;;;;5028968;28;19939;-57
2022/11/18 16:17:42;;;;;;;;;;;;;;;;;;5026293;28;19936;-59
2022/11/18 16:20:07;;;;;;;;;;;;;;;;;;5023846;28;19917;-56
2022/11/18 16:22:33;;;;;;;;;;;;;;;;;;5023314;28;19920;-57
2022/11/18 16:24:58;;;;;;;;;;;;;;;;;;5027827;28;19917;-57
2022/11/18 16:27:23;;;;;;;;;;;;;;;;;;5024015;28;19945;-57
2022/11/18 16:29:48;;;;;;;;;;;;;;;;;;5027624;28;19924;-54
2022/11/18 16:32:13;;;;;;;;;;;;;;;;;;5027543;28;19967;-55
2022/11/18 16:34:39;;;;;;;;;;;;;;;;;;5026744;28;19921;-56
2022/11/18 16:37:05;;;;;;;;;;;;;;;;;;5022328;28;19921;-54
2022/11/18 16:39:30;;;;;;;;;;;;;;;;;;5025850;28;20668;-54
2022/11/18 16:41:55;;;;;;;;;;;;;;;;;;5024523;28;20044;-55
2022/11/18 16:44:20;;;;;;;;;;;;;;;;;;5018795;28;19921;-53
2022/11/18 16:46:46;;;;;;;;;;;;;;;;;;5018985;28;19967;-54
2022/11/18 16:49:11;;;;;;;;;;;;;;;;;;5028503;28;19924;-57
2022/11/18 16:51:36;;;;;;;;;;;;;;;;;;5023740;28;20023;-54
2022/11/18 16:54:01;;;;;;;;;;;;;;;;;;5025186;28;20258;-58
2022/11/18 16:56:26;;;;;;;;;;;;;;;;;;5025632;28;20378;-56
2022/11/18 16:58:52;;;;;;;;;;;;;;;;;;5022491;28;19982;-54
2022/11/18 17:01:17;;;;;;;;;;;;;;;;;;5029629;28;20000;-55